Time;durP1;ratioP1;P1;durP2;ratioP2;P2;SDS_P1;SDS_P2;PMS_P1;PMS_P2;Temp;Humidity;BMP_temperature;BMP_pressure;BME280_temperature;BME280_humidity;BME280_pressure;Samples;Min_cycle;Max_cycle;Signal;HPM_P1;HPM_P2
2022/03/13 00:00:53;;;;;;;8.95;5.15;;;20.70;41.80;;;;;;4955724;28;20094;-73
2022/03/13 00:03:21;;;;;;;8.18;5.20;;;20.80;42.00;;;;;;4971182;28;20027;-73
2022/03/13 00:05:49;;;;;;;8.20;5.10;;;20.70;41.90;;;;;;4955812;29;20031;-73
2022/03/13 00:08:32;;;;;;;8.98;5.20;;;20.80;42.00;;;;;;4954859;29;20038;-73
2022/03/13 00:11:14;;;;;;;8.40;5.32;;;20.80;42.00;;;;;;4955952;29;20024;-73
2022/03/13 00:13:51;;;;;;;8.13;4.95;;;20.80;41.70;;;;;;4955869;29;20114;-73
2022/03/13 00:16:18;;;;;;;9.07;5.47;;;20.80;42.10;;;;;;4955485;29;20062;-73
2022/03/13 00:18:46;;;;;;;9.05;5.47;;;20.80;42.20;;;;;;4955702;29;20110;-73
2022/03/13 00:21:14;;;;;;;8.02;5.18;;;20.70;42.00;;;;;;4955243;28;20038;-73
2022/03/13 00:23:40;;;;;;;8.82;5.40;;;20.70;42.00;;;;;;4956060;29;20431;-73
2022/03/13 00:26:07;;;;;;;8.35;4.90;;;20.70;42.00;;;;;;4955360;29;20055;-73
2022/03/13 00:28:32;;;;;;;8.43;5.15;;;20.70;42.00;;;;;;4955741;29;20131;-73
2022/03/13 00:31:01;;;;;;;8.35;5.07;;;20.70;42.10;;;;;;4954851;29;20029;-73
2022/03/13 00:33:28;;;;;;;8.30;5.07;;;20.70;42.20;;;;;;4955511;28;20114;-73
2022/03/13 00:35:53;;;;;;;8.07;5.10;;;20.70;42.00;;;;;;4954153;29;20081;-73
2022/03/13 00:38:19;;;;;;;8.63;5.10;;;20.70;42.00;;;;;;4955406;29;20031;-73
2022/03/13 00:40:51;;;;;;;9.05;5.30;;;20.70;42.20;;;;;;4954878;29;20093;-72
2022/03/13 00:43:19;;;;;;;8.23;4.80;;;20.70;42.10;;;;;;4955198;28;20412;-72
2022/03/13 00:45:44;;;;;;;9.15;5.30;;;20.70;42.10;;;;;;4953848;29;20506;-73
2022/03/13 00:48:10;;;;;;;9.02;5.65;;;20.70;42.10;;;;;;4953918;29;20035;-73
2022/03/13 00:50:36;;;;;;;7.90;5.07;;;20.70;41.80;;;;;;4953582;28;20285;-74
2022/03/13 00:53:02;;;;;;;7.65;5.13;;;20.70;42.00;;;;;;4955132;28;20472;-73
2022/03/13 00:55:28;;;;;;;8.23;5.13;;;20.70;42.00;;;;;;4954979;29;20034;-72
2022/03/13 00:57:54;;;;;;;8.05;5.10;;;20.70;41.80;;;;;;4954049;29;20109;-73
2022/03/13 01:00:20;;;;;;;8.95;5.50;;;20.70;42.20;;;;;;4952562;28;20566;-72
2022/03/13 01:02:46;;;;;;;8.20;5.03;;;20.70;41.80;;;;;;4955104;28;20043;-73
2022/03/13 01:05:19;;;;;;;8.68;5.38;;;20.70;42.00;;;;;;4955036;29;20035;-73
2022/03/13 01:07:45;;;;;;;8.23;5.03;;;20.70;42.20;;;;;;4955099;29;20531;-72
2022/03/13 01:10:11;;;;;;;7.45;4.53;;;20.70;42.00;;;;;;4954378;29;20118;-73
2022/03/13 01:12:37;;;;;;;7.82;5.10;;;20.70;42.10;;;;;;4953388;28;20440;-73
2022/03/13 01:15:04;;;;;;;8.75;5.55;;;20.70;41.90;;;;;;4953376;29;20024;-73
2022/03/13 01:17:30;;;;;;;10.02;5.53;;;20.80;42.00;;;;;;4955241;29;20027;-73
2022/03/13 01:19:56;;;;;;;8.00;5.15;;;20.80;42.10;;;;;;4954472;29;20538;-72
2022/03/13 01:22:21;;;;;;;7.95;4.80;;;20.70;41.80;;;;;;4953695;28;20043;-73
2022/03/13 01:24:47;;;;;;;7.25;4.80;;;20.70;42.00;;;;;;4955028;29;20027;-72
2022/03/13 01:27:15;;;;;;;7.38;4.65;;;20.70;42.00;;;;;;4954517;29;20490;-73
2022/03/13 01:29:42;;;;;;;7.55;4.85;;;20.70;42.00;;;;;;4954577;29;20031;-73
2022/03/13 01:32:10;;;;;;;8.23;4.80;;;20.70;42.10;;;;;;4953331;28;20458;-73
2022/03/13 01:34:50;;;;;;;8.35;4.90;;;20.70;42.00;;;;;;4954382;29;20664;-72
2022/03/13 01:37:35;;;;;;;;;;;20.70;42.10;;;;;;4954793;29;20085;-73
2022/03/13 01:40:09;;;;;;;7.85;4.45;;;20.70;42.20;;;;;;4953948;29;19910;-73
2022/03/13 01:42:35;;;;;;;7.88;4.93;;;20.70;42.00;;;;;;4954120;28;20050;-72
2022/03/13 01:45:02;;;;;;;8.27;4.70;;;20.70;42.20;;;;;;4954156;29;20498;-73
2022/03/13 01:47:28;;;;;;;7.60;5.10;;;20.70;42.00;;;;;;4954243;29;20035;-73
2022/03/13 01:49:54;;;;;;;7.95;4.85;;;20.70;42.00;;;;;;4953703;29;20101;-72
2022/03/13 01:52:28;;;;;;;7.43;4.57;;;20.70;42.00;;;;;;4954038;28;20027;-73
2022/03/13 01:54:55;;;;;;;6.72;4.47;;;20.70;42.10;;;;;;4952945;29;20028;-72
2022/03/13 01:57:22;;;;;;;8.30;5.07;;;20.70;42.10;;;;;;4953804;29;20034;-73
2022/03/13 01:59:56;;;;;;;8.30;4.80;;;20.70;42.20;;;;;;4953615;29;20035;-73
2022/03/13 02:02:25;;;;;;;9.02;5.43;;;20.70;42.10;;;;;;4953707;28;20035;-73
2022/03/13 02:04:55;;;;;;;8.80;5.18;;;20.70;42.20;;;;;;4953739;29;20031;-73
2022/03/13 02:07:21;;;;;;;8.77;5.50;;;20.70;42.20;;;;;;4953451;29;20070;-72
2022/03/13 02:09:48;;;;;;;8.77;5.25;;;20.60;42.00;;;;;;4952023;29;20062;-72
2022/03/13 02:12:16;;;;;;;9.38;5.18;;;20.70;42.00;;;;;;4952233;28;20037;-72
2022/03/13 02:14:42;;;;;;;7.43;4.90;;;20.70;42.40;;;;;;4953615;28;20031;-72
2022/03/13 02:17:08;;;;;;;7.25;4.90;;;20.70;42.20;;;;;;4953569;29;20102;-73
2022/03/13 02:19:34;;;;;;;7.80;4.70;;;20.70;42.10;;;;;;4953164;29;20396;-73
2022/03/13 02:22:00;;;;;;;7.53;5.03;;;20.70;42.00;;;;;;4952390;28;20043;-72
2022/03/13 02:24:26;;;;;;;8.25;4.90;;;20.70;42.00;;;;;;4953589;29;20023;-72
2022/03/13 02:27:02;;;;;;;8.68;5.22;;;20.70;42.50;;;;;;4953607;29;20443;-72
2022/03/13 02:29:28;;;;;;;7.97;5.18;;;20.70;42.00;;;;;;4953129;29;20027;-72
2022/03/13 02:31:55;;;;;;;8.48;4.85;;;20.70;42.00;;;;;;4953478;28;20086;-73
2022/03/13 02:34:21;;;;;;;7.20;4.93;;;20.70;42.00;;;;;;4953327;29;20019;-73
2022/03/13 02:36:49;;;;;;;8.75;5.10;;;20.70;42.00;;;;;;4952038;29;20034;-73
2022/03/13 02:39:15;;;;;;;8.95;5.03;;;20.70;42.00;;;;;;4952123;28;20039;-73
2022/03/13 02:41:41;;;;;;;8.18;4.93;;;20.70;42.10;;;;;;4951595;28;20028;-73
2022/03/13 02:44:08;;;;;;;8.93;5.03;;;20.70;42.00;;;;;;4953157;29;20031;-73
2022/03/13 02:46:49;;;;;;;7.82;5.10;;;20.70;41.90;;;;;;4952150;28;20042;-74
2022/03/13 02:49:20;;;;;;;9.18;4.97;;;20.60;41.90;;;;;;4951901;29;20039;-73
2022/03/13 02:51:48;;;;;;;9.27;4.90;;;20.70;42.00;;;;;;4952972;28;20514;-73
2022/03/13 02:54:15;;;;;;;8.48;4.95;;;20.60;42.00;;;;;;4952175;29;20047;-73
2022/03/13 02:56:41;;;;;;;7.25;4.60;;;20.60;41.90;;;;;;4936211;29;20031;-73
2022/03/13 02:59:08;;;;;;;7.63;5.10;;;20.60;42.00;;;;;;4953107;29;20035;-73
2022/03/13 03:01:36;;;;;;;8.65;5.03;;;20.60;42.60;;;;;;4951463;28;20042;-73
2022/03/13 03:04:03;;;;;;;8.15;4.80;;;20.60;41.90;;;;;;4953014;29;20028;-73
2022/03/13 03:06:30;;;;;;;6.78;4.72;;;20.60;42.00;;;;;;4952897;28;20484;-73
2022/03/13 03:08:56;;;;;;;8.90;5.45;;;20.60;42.10;;;;;;4951818;29;20020;-73
2022/03/13 03:11:22;;;;;;;8.52;4.38;;;20.60;42.00;;;;;;4951058;28;20031;-73
2022/03/13 03:13:48;;;;;;;7.38;4.68;;;20.60;42.00;;;;;;4935992;29;20027;-73
2022/03/13 03:16:14;;;;;;;9.45;4.90;;;20.60;42.00;;;;;;4952811;29;20086;-73
2022/03/13 03:18:40;;;;;;;8.77;4.97;;;20.60;42.60;;;;;;4951701;29;20023;-73
2022/03/13 03:21:06;;;;;;;10.13;5.10;;;20.60;41.90;;;;;;4951236;28;20031;-73
2022/03/13 03:23:32;;;;;;;8.27;4.88;;;20.60;41.80;;;;;;4954794;28;20122;-73
2022/03/13 03:25:58;;;;;;;8.07;4.65;;;20.60;42.00;;;;;;4956300;28;20106;-73
2022/03/13 03:28:23;;;;;;;7.40;4.63;;;20.60;42.20;;;;;;4955221;29;20031;-73
2022/03/13 03:30:49;;;;;;;7.35;4.93;;;20.60;42.00;;;;;;4956043;29;20031;-73
2022/03/13 03:33:15;;;;;;;7.47;4.60;;;20.60;41.80;;;;;;4956417;28;20106;-73
2022/03/13 03:35:41;;;;;;;6.72;4.82;;;20.60;41.80;;;;;;4956385;29;20111;-73
2022/03/13 03:38:07;;;;;;;7.90;4.57;;;20.60;41.80;;;;;;4956176;29;20059;-73
2022/03/13 03:40:34;;;;;;;8.90;4.80;;;20.60;41.80;;;;;;4955838;29;20039;-72
2022/03/13 03:43:03;;;;;;;8.35;4.80;;;20.60;41.80;;;;;;4954853;28;20059;-73
2022/03/13 03:45:29;;;;;;;7.50;4.53;;;20.70;42.00;;;;;;4956106;29;20031;-73
2022/03/13 03:47:55;;;;;;;8.15;4.82;;;20.60;41.90;;;;;;4955984;29;20453;-73
2022/03/13 03:50:21;;;;;;;6.72;4.28;;;20.60;41.80;;;;;;4954413;29;20039;-73
2022/03/13 03:52:47;;;;;;;8.05;4.90;;;20.60;42.00;;;;;;4955819;28;20120;-74
2022/03/13 03:55:14;;;;;;;8.05;4.93;;;20.60;42.00;;;;;;4954783;29;20031;-73
2022/03/13 03:57:40;;;;;;;6.97;4.63;;;20.60;41.90;;;;;;4955859;29;20075;-73
2022/03/13 04:00:07;;;;;;;6.72;4.60;;;20.60;41.90;;;;;;4955528;29;20039;-73
2022/03/13 04:02:40;;;;;;;8.23;4.80;;;20.70;41.90;;;;;;4955733;28;20027;-72
2022/03/13 04:05:06;;;;;;;7.63;4.70;;;20.60;41.90;;;;;;4955860;29;20038;-72
2022/03/13 04:07:32;;;;;;;6.82;4.70;;;20.60;41.70;;;;;;4954413;29;20037;-73
2022/03/13 04:09:58;;;;;;;7.30;4.80;;;20.60;41.90;;;;;;4955385;28;20031;-72
2022/03/13 04:12:25;;;;;;;8.88;5.30;;;20.60;41.70;;;;;;4954613;28;20456;-72
2022/03/13 04:14:52;;;;;;;7.63;4.57;;;20.60;41.80;;;;;;4955697;29;20019;-73
2022/03/13 04:17:18;;;;;;;8.23;5.03;;;20.60;42.00;;;;;;4955815;29;20023;-73
2022/03/13 04:19:44;;;;;;;8.63;4.65;;;20.60;41.90;;;;;;4955172;29;20042;-73
2022/03/13 04:22:09;;;;;;;7.82;4.70;;;20.60;41.80;;;;;;4953879;28;20071;-73
2022/03/13 04:24:35;;;;;;;9.32;4.90;;;20.60;42.00;;;;;;4954294;29;20034;-72
2022/03/13 04:27:02;;;;;;;8.95;4.90;;;20.60;41.90;;;;;;4954253;29;20031;-72
2022/03/13 04:29:27;;;;;;;7.25;4.35;;;20.60;41.90;;;;;;4954940;29;20032;-73
2022/03/13 04:31:54;;;;;;;7.57;4.25;;;20.60;42.00;;;;;;4955209;28;20034;-73
2022/03/13 04:34:22;;;;;;;9.10;5.10;;;20.60;42.00;;;;;;4954200;28;20391;-73
2022/03/13 04:36:48;;;;;;;9.73;5.20;;;20.60;41.90;;;;;;4955850;29;20055;-73
2022/03/13 04:39:14;;;;;;;7.85;4.75;;;20.60;41.90;;;;;;4938029;29;20031;-73
2022/03/13 04:41:41;;;;;;;7.45;4.53;;;20.60;41.90;;;;;;4954774;28;20118;-73
2022/03/13 04:44:14;;;;;;;7.50;4.95;;;20.60;42.00;;;;;;4954047;29;20067;-73
2022/03/13 04:46:41;;;;;;;7.72;4.95;;;20.60;41.80;;;;;;4953894;29;20504;-73
2022/03/13 04:49:08;;;;;;;7.75;5.05;;;20.60;41.80;;;;;;4954740;28;20031;-72
2022/03/13 04:51:34;;;;;;;7.57;4.68;;;20.70;41.60;;;;;;4953471;28;20031;-72
2022/03/13 04:54:00;;;;;;;7.63;5.03;;;20.70;41.50;;;;;;4954948;29;20042;-72
2022/03/13 04:56:26;;;;;;;8.82;4.75;;;20.70;41.70;;;;;;4955058;29;20055;-73
2022/03/13 04:58:51;;;;;;;7.05;4.55;;;20.70;41.80;;;;;;4955083;29;20114;-73
2022/03/13 05:01:19;;;;;;;9.20;5.00;;;20.70;41.60;;;;;;4954460;28;20508;-72
2022/03/13 05:03:45;;;;;;;8.63;5.13;;;20.70;41.80;;;;;;4954556;29;20027;-73
2022/03/13 05:06:12;;;;;;;8.80;4.78;;;20.70;41.90;;;;;;4954798;29;20381;-73
2022/03/13 05:08:40;;;;;;;6.68;4.47;;;20.60;41.80;;;;;;4954838;29;20035;-73
2022/03/13 05:11:07;;;;;;;7.45;4.47;;;20.60;41.80;;;;;;4952708;28;20035;-73
2022/03/13 05:13:34;;;;;;;7.05;4.97;;;20.60;41.80;;;;;;4954949;29;20039;-73
2022/03/13 05:15:59;;;;;;;7.20;4.63;;;20.60;41.90;;;;;;4953584;29;20043;-73
2022/03/13 05:18:26;;;;;;;7.97;4.97;;;20.60;41.80;;;;;;4953270;29;20035;-72
2022/03/13 05:20:51;;;;;;;8.15;5.00;;;20.60;41.80;;;;;;4953277;28;20118;-73
2022/03/13 05:23:17;;;;;;;7.93;4.75;;;20.60;41.80;;;;;;4954551;28;20127;-72
2022/03/13 05:25:43;;;;;;;8.55;5.22;;;20.60;41.80;;;;;;4954531;29;20067;-72
2022/03/13 05:28:09;;;;;;;9.18;5.45;;;20.60;41.70;;;;;;4953593;29;20391;-73
2022/03/13 05:30:36;;;;;;;7.57;4.72;;;20.60;41.80;;;;;;4952958;29;20034;-72
2022/03/13 05:33:03;;;;;;;8.70;4.93;;;20.60;41.80;;;;;;4954159;28;20034;-72
2022/03/13 05:35:29;;;;;;;10.43;5.43;;;20.60;41.70;;;;;;4953266;29;20542;-73
2022/03/13 05:37:55;;;;;;;8.25;4.80;;;20.50;41.80;;;;;;4954222;29;20031;-72
2022/03/13 05:40:21;;;;;;;8.32;5.22;;;20.60;41.80;;;;;;4954033;29;20086;-72
2022/03/13 05:42:50;;;;;;;8.25;5.10;;;20.50;41.70;;;;;;4952881;28;20499;-72
2022/03/13 05:45:19;;;;;;;7.43;4.47;;;20.50;41.80;;;;;;4952798;28;20392;-73
2022/03/13 05:47:50;;;;;;;8.70;5.10;;;20.50;41.80;;;;;;4953923;28;20147;-72
2022/03/13 05:50:17;;;;;;;8.25;4.97;;;20.50;41.70;;;;;;4952535;28;20118;-73
2022/03/13 05:52:45;;;;;;;8.48;4.88;;;20.50;41.70;;;;;;4953783;28;20051;-73
2022/03/13 05:55:10;;;;;;;8.82;5.40;;;20.50;41.70;;;;;;4937047;29;20110;-73
2022/03/13 05:57:37;;;;;;;8.65;5.07;;;20.50;42.00;;;;;;4953792;29;20641;-73
2022/03/13 06:00:05;;;;;;;9.02;5.40;;;20.60;41.70;;;;;;4952573;29;20397;-73
2022/03/13 06:02:42;;;;;;;7.20;4.78;;;20.60;41.70;;;;;;4954302;28;20035;-73
2022/03/13 06:05:12;;;;;;;8.65;4.55;;;20.60;41.70;;;;;;4953912;29;20436;-73
2022/03/13 06:07:39;;;;;;;9.20;5.25;;;20.60;41.70;;;;;;4954005;29;20126;-72
2022/03/13 06:10:08;;;;;;;8.50;5.30;;;20.60;41.50;;;;;;4953543;29;20035;-72
2022/03/13 06:12:35;;;;;;;8.10;5.03;;;20.60;41.70;;;;;;4952579;28;20031;-73
2022/03/13 06:15:03;;;;;;;8.52;4.90;;;20.60;41.70;;;;;;4952583;29;20081;-73
2022/03/13 06:17:29;;;;;;;8.05;4.82;;;20.60;41.60;;;;;;4952480;29;20027;-73
2022/03/13 06:19:55;;;;;;;8.73;5.32;;;20.60;41.60;;;;;;4953592;29;20031;-73
2022/03/13 06:22:25;;;;;;;9.50;5.10;;;20.60;41.60;;;;;;4953589;28;20031;-73
2022/03/13 06:24:54;;;;;;;8.50;5.07;;;20.60;41.70;;;;;;4952264;29;20396;-72
2022/03/13 06:27:21;;;;;;;9.32;5.68;;;20.60;41.60;;;;;;4953750;28;20035;-73
2022/03/13 06:29:47;;;;;;;9.02;5.55;;;20.60;41.80;;;;;;4952958;29;20496;-73
2022/03/13 06:32:13;;;;;;;8.40;5.05;;;20.60;41.70;;;;;;4953453;28;20031;-73
2022/03/13 06:34:39;;;;;;;8.02;5.18;;;20.60;41.70;;;;;;4953560;29;20019;-73
2022/03/13 06:37:05;;;;;;;8.82;5.43;;;20.60;41.70;;;;;;4953697;28;20114;-72
2022/03/13 06:39:32;;;;;;;8.30;5.43;;;20.60;41.70;;;;;;4952825;29;20049;-73
2022/03/13 06:41:58;;;;;;;10.10;6.00;;;20.60;41.80;;;;;;4953366;28;20035;-73
2022/03/13 06:44:23;;;;;;;8.73;5.00;;;20.60;41.70;;;;;;4953306;29;20027;-72
2022/03/13 06:46:49;;;;;;;9.85;5.70;;;20.60;41.70;;;;;;4953418;29;20104;-72
2022/03/13 06:49:15;;;;;;;9.70;5.32;;;20.60;41.70;;;;;;4953067;29;20041;-73
2022/03/13 06:51:41;;;;;;;8.20;5.15;;;20.60;41.60;;;;;;4952957;28;20499;-73
2022/03/13 06:54:09;;;;;;;7.85;5.05;;;20.60;41.60;;;;;;4953479;29;20461;-73
2022/03/13 06:56:35;;;;;;;8.82;5.22;;;20.60;41.60;;;;;;4953062;29;20424;-72
2022/03/13 06:59:04;;;;;;;7.30;4.85;;;20.60;41.40;;;;;;4956021;28;20195;-73
2022/03/13 07:01:30;;;;;;;8.88;5.32;;;20.70;41.60;;;;;;4955683;28;20035;-72
2022/03/13 07:03:56;;;;;;;9.50;5.45;;;20.60;41.60;;;;;;4957127;29;20078;-72
2022/03/13 07:06:22;;;;;;;9.27;5.03;;;20.60;41.60;;;;;;4957161;28;20114;-73
2022/03/13 07:08:47;;;;;;;10.48;5.72;;;20.60;41.50;;;;;;4956787;29;20058;-73
2022/03/13 07:11:15;;;;;;;9.88;5.60;;;20.60;41.50;;;;;;4956494;28;20551;-73
2022/03/13 07:13:44;;;;;;;9.63;5.75;;;20.70;41.40;;;;;;4956972;29;20392;-72
2022/03/13 07:16:10;;;;;;;9.98;5.38;;;20.70;41.40;;;;;;4956890;28;20031;-73
2022/03/13 07:18:36;;;;;;;8.85;4.95;;;20.70;41.40;;;;;;4956767;29;20020;-73
2022/03/13 07:21:02;;;;;;;8.38;5.30;;;20.70;41.30;;;;;;4955264;29;20077;-73
2022/03/13 07:23:28;;;;;;;8.75;5.32;;;20.70;41.40;;;;;;4956444;29;20110;-73
2022/03/13 07:25:54;;;;;;;7.80;4.95;;;20.70;41.40;;;;;;4956738;29;20454;-73
2022/03/13 07:28:20;;;;;;;7.78;5.15;;;20.70;41.30;;;;;;4956935;29;20034;-73
2022/03/13 07:30:46;;;;;;;8.02;4.95;;;20.70;41.20;;;;;;4956685;28;20039;-73
2022/03/13 07:33:12;;;;;;;9.50;5.78;;;20.70;41.40;;;;;;4956731;28;20419;-73
2022/03/13 07:35:39;;;;;;;9.27;5.35;;;20.80;41.20;;;;;;4956258;29;20480;-73
2022/03/13 07:38:04;;;;;;;8.77;5.55;;;20.80;41.10;;;;;;4956524;29;20029;-73
2022/03/13 07:40:31;;;;;;;10.77;5.57;;;20.70;41.10;;;;;;4955943;29;20034;-73
2022/03/13 07:43:00;;;;;;;7.55;5.13;;;20.80;41.40;;;;;;4955217;28;20472;-73
2022/03/13 07:45:26;;;;;;;9.15;5.20;;;20.70;41.30;;;;;;4956434;29;20114;-73
2022/03/13 07:47:57;;;;;;;7.55;5.03;;;20.80;41.60;;;;;;4956311;29;20053;-73
2022/03/13 07:50:24;;;;;;;9.35;5.35;;;20.80;41.70;;;;;;4954564;29;20035;-72
2022/03/13 07:52:50;;;;;;;9.77;5.63;;;20.80;41.80;;;;;;4956024;28;20516;-71
2022/03/13 07:55:17;;;;;;;9.60;5.60;;;20.80;42.00;;;;;;4956081;29;20055;-71
2022/03/13 07:57:43;;;;;;;8.55;5.10;;;20.80;42.10;;;;;;4956034;29;20078;-72
2022/03/13 08:00:15;;;;;;;9.75;5.28;;;20.80;42.20;;;;;;4956108;29;20054;-73
2022/03/13 08:02:44;;;;;;;10.02;5.47;;;20.80;42.30;;;;;;4956446;28;20105;-73
2022/03/13 08:05:11;;;;;;;8.02;5.07;;;20.90;42.40;;;;;;4955738;29;20055;-73
2022/03/13 08:07:36;;;;;;;9.43;5.78;;;20.90;42.40;;;;;;4955025;29;20110;-73
2022/03/13 08:10:03;;;;;;;9.30;5.40;;;20.90;42.50;;;;;;4955146;28;20118;-72
2022/03/13 08:12:28;;;;;;;8.77;5.63;;;20.90;42.50;;;;;;4955775;28;20031;-72
2022/03/13 08:14:54;;;;;;;9.50;5.22;;;21.00;42.60;;;;;;4955924;29;20564;-73
2022/03/13 08:17:20;;;;;;;9.20;5.45;;;20.90;42.50;;;;;;4955997;29;20494;-73
2022/03/13 08:19:46;;;;;;;11.27;6.10;;;20.90;42.50;;;;;;4955305;29;20036;-72
2022/03/13 08:22:12;;;;;;;10.88;5.88;;;21.00;42.60;;;;;;4955683;28;20039;-73
2022/03/13 08:24:38;;;;;;;8.93;5.43;;;21.00;42.50;;;;;;4954450;29;20031;-73
2022/03/13 08:27:03;;;;;;;9.95;5.72;;;21.00;42.50;;;;;;4955455;29;20428;-73
2022/03/13 08:29:30;;;;;;;8.38;5.45;;;21.00;42.40;;;;;;4955237;29;20170;-72
2022/03/13 08:31:56;;;;;;;10.30;5.70;;;21.10;42.50;;;;;;4955449;28;20038;-72
2022/03/13 08:34:23;;;;;;;8.85;5.38;;;21.10;42.50;;;;;;4955178;29;20114;-73
2022/03/13 08:36:50;;;;;;;8.68;5.05;;;21.10;42.50;;;;;;4955313;29;20060;-73
2022/03/13 08:39:16;;;;;;;8.50;5.60;;;21.10;42.50;;;;;;4955230;29;20023;-73
2022/03/13 08:41:42;;;;;;;9.65;5.80;;;21.10;42.50;;;;;;4954956;28;20072;-73
2022/03/13 08:44:08;;;;;;;9.38;5.72;;;21.10;42.50;;;;;;4955126;29;20505;-73
2022/03/13 08:46:34;;;;;;;9.48;5.60;;;21.10;42.50;;;;;;4955045;29;20031;-73
2022/03/13 08:49:00;;;;;;;9.85;5.85;;;21.10;42.50;;;;;;4955256;29;20332;-73
2022/03/13 08:51:27;;;;;;;9.32;5.45;;;21.10;42.50;;;;;;4954609;28;20045;-73
2022/03/13 08:53:54;;;;;;;10.20;5.93;;;21.10;42.50;;;;;;4955098;29;20396;-73
2022/03/13 08:56:20;;;;;;;9.90;5.43;;;21.10;42.50;;;;;;4954921;29;20023;-73
2022/03/13 08:58:46;;;;;;;9.05;5.35;;;21.10;42.50;;;;;;4954843;29;20031;-72
2022/03/13 09:01:12;;;;;;;9.02;5.22;;;21.10;42.60;;;;;;4954493;28;20086;-73
2022/03/13 09:03:37;;;;;;;8.38;5.47;;;21.10;42.60;;;;;;4953601;29;20440;-73
2022/03/13 09:06:04;;;;;;;9.75;5.57;;;21.10;42.60;;;;;;4954756;29;20451;-73
2022/03/13 09:08:30;;;;;;;8.75;5.47;;;21.10;42.50;;;;;;4954852;29;20488;-73
2022/03/13 09:10:56;;;;;;;9.35;5.25;;;21.10;42.60;;;;;;4954307;29;20035;-73
2022/03/13 09:13:21;;;;;;;9.02;5.65;;;21.10;42.60;;;;;;4955168;28;20567;-73
2022/03/13 09:15:48;;;;;;;9.60;5.63;;;21.10;42.50;;;;;;4954560;29;20027;-73
2022/03/13 09:18:13;;;;;;;7.93;5.40;;;21.10;42.60;;;;;;4954836;29;20550;-72
2022/03/13 09:20:40;;;;;;;9.25;5.47;;;21.20;42.60;;;;;;4953606;28;20122;-73
2022/03/13 09:23:06;;;;;;;9.52;5.63;;;21.20;42.60;;;;;;4954667;28;20118;-73
2022/03/13 09:25:32;;;;;;;8.75;5.57;;;21.20;42.60;;;;;;4954712;29;20119;-73
2022/03/13 09:27:58;;;;;;;9.95;5.88;;;21.20;42.60;;;;;;4954640;29;20082;-73
2022/03/13 09:30:25;;;;;;;9.32;5.80;;;21.20;42.60;;;;;;4954218;29;20031;-73
2022/03/13 09:32:50;;;;;;;9.45;5.80;;;21.20;42.60;;;;;;4954509;28;20461;-73
2022/03/13 09:35:17;;;;;;;8.70;5.45;;;21.20;42.60;;;;;;4953173;29;20027;-72
2022/03/13 09:37:42;;;;;;;10.30;5.75;;;21.30;42.70;;;;;;4954120;29;20499;-73
2022/03/13 09:40:10;;;;;;;9.10;5.55;;;21.30;42.60;;;;;;4954226;29;20104;-72
2022/03/13 09:42:37;;;;;;;9.15;5.18;;;21.30;42.70;;;;;;4954379;28;20039;-73
2022/03/13 09:45:03;;;;;;;8.95;5.43;;;21.30;42.60;;;;;;4953937;29;20038;-73
2022/03/13 09:47:29;;;;;;;10.05;5.68;;;21.30;42.70;;;;;;4954190;29;20027;-73
2022/03/13 09:49:55;;;;;;;8.48;5.32;;;21.30;42.70;;;;;;4952510;29;20028;-73
2022/03/13 09:52:21;;;;;;;10.18;5.32;;;21.30;42.70;;;;;;4952982;28;20074;-73
2022/03/13 09:54:47;;;;;;;8.82;5.40;;;21.20;42.60;;;;;;4954092;29;20035;-73
2022/03/13 09:57:14;;;;;;;9.13;5.40;;;21.20;42.70;;;;;;4952864;29;20118;-73
2022/03/13 09:59:43;;;;;;;8.88;5.47;;;21.20;42.70;;;;;;4953671;29;20090;-73
2022/03/13 10:02:09;;;;;;;8.70;5.32;;;21.20;42.70;;;;;;4953511;28;20119;-73
2022/03/13 10:04:35;;;;;;;8.77;5.60;;;21.20;42.70;;;;;;4953929;29;20059;-73
2022/03/13 10:07:02;;;;;;;10.02;5.60;;;21.20;42.60;;;;;;4954095;29;20522;-73
2022/03/13 10:09:29;;;;;;;9.05;5.63;;;21.20;42.70;;;;;;4953709;29;20035;-73
2022/03/13 10:12:12;;;;;;;8.50;5.15;;;21.20;43.20;;;;;;4954195;28;20023;-73
2022/03/13 10:15:00;;;;;;;8.05;5.25;;;21.20;42.60;;;;;;4953933;29;20024;-73
2022/03/13 10:17:28;;;;;;;8.95;5.60;;;21.20;42.60;;;;;;4953636;29;20469;-72
2022/03/13 10:20:09;;;;;;;8.48;5.20;;;21.20;42.70;;;;;;4953371;29;20027;-72
2022/03/13 10:22:35;;;;;;;8.80;5.38;;;21.20;42.70;;;;;;4952150;28;20062;-73
2022/03/13 10:25:01;;;;;;;9.32;5.43;;;21.20;42.80;;;;;;4952329;29;20074;-73
2022/03/13 10:27:27;;;;;;;8.07;4.93;;;21.20;42.80;;;;;;4952316;29;20078;-73
2022/03/13 10:29:53;;;;;;;9.57;5.57;;;21.20;42.80;;;;;;4953131;29;20043;-73
2022/03/13 10:32:20;;;;;;;10.20;6.00;;;21.20;42.80;;;;;;4952288;28;20058;-73
2022/03/13 10:34:57;;;;;;;8.93;5.25;;;21.20;42.90;;;;;;4952718;29;20035;-73
2022/03/13 10:37:37;;;;;;;8.90;5.38;;;21.20;42.80;;;;;;4953572;29;20031;-70
2022/03/13 10:40:24;;;;;;;8.73;5.38;;;21.20;42.80;;;;;;4952120;29;20031;-73
2022/03/13 10:42:54;;;;;;;;;;;21.20;42.90;;;;;;4952755;28;20035;-72
2022/03/13 10:45:49;;;;;;;8.73;5.38;;;21.20;42.90;;;;;;4953281;29;20014;-73
2022/03/13 10:48:27;;;;;;;9.60;5.45;;;21.30;42.90;;;;;;4953175;29;20059;-72
2022/03/13 10:50:53;;;;;;;9.13;5.30;;;21.20;42.80;;;;;;4952791;29;20037;-72
2022/03/13 10:53:21;;;;;;;7.95;5.22;;;21.20;42.80;;;;;;4953277;28;20027;-72
2022/03/13 10:56:20;;;;;;;9.10;5.78;;;21.20;42.80;;;;;;4953075;29;20058;-72
2022/03/13 10:58:47;;;;;;;9.25;5.30;;;21.20;42.80;;;;;;4926412;28;20042;-72
2022/03/13 11:01:18;;;;;;;8.55;5.10;;;21.20;42.80;;;;;;4952774;28;20058;-72
2022/03/13 11:03:53;;;;;;;8.93;5.75;;;21.20;42.70;;;;;;4953065;29;20027;-72
2022/03/13 11:06:21;;;;;;;8.70;5.65;;;21.20;42.70;;;;;;4953388;29;20032;-72
2022/03/13 11:08:52;;;;;;;8.68;5.10;;;21.20;42.70;;;;;;4953150;29;20027;-72
2022/03/13 11:11:19;;;;;;;8.55;5.45;;;21.10;42.70;;;;;;4952433;28;20042;-73
2022/03/13 11:13:52;;;;;;;9.55;5.57;;;21.10;42.60;;;;;;4952928;29;20133;-73
2022/03/13 11:16:27;;;;;;;8.48;5.40;;;21.10;42.70;;;;;;4952938;29;20023;-72
2022/03/13 11:19:02;;;;;;;8.50;5.18;;;21.10;42.60;;;;;;4951560;29;20035;-72
2022/03/13 11:21:28;;;;;;;9.80;5.57;;;21.10;42.70;;;;;;4952339;28;20042;-73
2022/03/13 11:23:55;;;;;;;7.53;5.10;;;21.10;42.70;;;;;;4952847;29;20035;-73
2022/03/13 11:26:25;;;;;;;7.38;5.15;;;21.10;42.80;;;;;;4951511;29;20078;-73
2022/03/13 11:28:53;;;;;;;;;;;21.10;42.80;;;;;;4952061;29;20469;-73
2022/03/13 11:31:37;;;;;;;8.32;5.20;;;21.10;42.80;;;;;;4952166;28;19915;-73
2022/03/13 11:34:18;;;;;;;10.10;5.40;;;21.10;42.90;;;;;;4952798;29;20114;-73
2022/03/13 11:36:51;;;;;;;9.40;5.28;;;21.20;42.90;;;;;;4951561;29;20181;-73
2022/03/13 11:39:31;;;;;;;8.55;5.25;;;21.10;42.90;;;;;;4952638;29;20102;-72
2022/03/13 11:41:57;;;;;;;;;;;21.10;42.90;;;;;;4953109;28;20054;-72
2022/03/13 11:44:23;;;;;;;9.60;5.40;;;21.10;42.90;;;;;;4952869;28;19914;-73
2022/03/13 11:46:54;;;;;;;9.32;5.60;;;21.10;42.80;;;;;;4956088;29;20023;-72
2022/03/13 11:49:32;;;;;;;8.45;5.03;;;21.10;42.90;;;;;;4956057;29;20110;-72
2022/03/13 11:52:10;;;;;;;7.18;4.88;;;21.10;42.80;;;;;;4955890;28;20031;-73
2022/03/13 11:54:56;;;;;;;9.23;5.15;;;21.10;42.80;;;;;;4955974;29;20476;-72
2022/03/13 11:57:24;;;;;;;8.25;5.10;;;21.20;42.90;;;;;;4956056;29;20031;-73
2022/03/13 12:00:11;;;;;;;9.65;5.57;;;21.10;42.80;;;;;;4954680;28;20031;-72
2022/03/13 12:02:43;;;;;;;9.45;5.65;;;21.10;42.80;;;;;;4955779;28;20571;-73
2022/03/13 12:05:28;;;;;;;9.88;6.05;;;21.10;42.90;;;;;;4955811;29;20074;-73
2022/03/13 12:07:56;;;;;;;9.73;5.53;;;21.10;42.80;;;;;;4955693;29;20053;-72
2022/03/13 12:10:35;;;;;;;8.15;5.20;;;21.10;42.80;;;;;;4955329;29;20377;-73
2022/03/13 12:13:07;;;;;;;8.73;5.07;;;21.10;42.80;;;;;;4955518;28;20554;-73
2022/03/13 12:15:34;;;;;;;8.52;4.90;;;21.10;42.90;;;;;;4955807;29;20039;-73
2022/03/13 12:18:10;;;;;;;7.55;4.82;;;21.10;42.80;;;;;;4955597;29;20107;-72
2022/03/13 12:20:36;;;;;;;8.38;4.78;;;21.10;42.80;;;;;;4955405;29;20031;-73
2022/03/13 12:23:02;;;;;;;9.88;5.10;;;21.10;42.80;;;;;;4954354;28;20495;-73
2022/03/13 12:25:30;;;;;;;8.55;5.10;;;21.10;42.80;;;;;;4955375;29;20035;-73
2022/03/13 12:27:57;;;;;;;10.60;5.43;;;21.10;42.80;;;;;;4955374;29;20435;-73
2022/03/13 12:30:27;;;;;;;7.72;4.93;;;21.10;42.70;;;;;;4955007;29;20045;-73
2022/03/13 12:33:04;;;;;;;6.55;4.35;;;21.10;42.80;;;;;;4955325;28;20046;-72
2022/03/13 12:35:31;;;;;;;9.70;5.57;;;21.10;42.60;;;;;;4954229;29;20114;-72
2022/03/13 12:38:01;;;;;;;8.98;5.28;;;21.10;42.50;;;;;;4954141;29;20050;-72
2022/03/13 12:40:30;;;;;;;9.57;5.55;;;21.10;42.70;;;;;;4953778;29;20051;-72
2022/03/13 12:43:01;;;;;;;9.70;5.43;;;21.10;42.50;;;;;;4954998;28;20420;-72
2022/03/13 12:45:27;;;;;;;8.73;5.15;;;21.10;42.40;;;;;;4955003;29;20042;-71
2022/03/13 12:47:59;;;;;;;9.23;5.35;;;21.10;42.50;;;;;;4954935;29;20035;-72
2022/03/13 12:50:27;;;;;;;8.35;5.18;;;21.10;42.50;;;;;;4954434;29;20118;-73
2022/03/13 12:52:56;;;;;;;9.07;5.22;;;21.10;42.50;;;;;;4953734;28;20050;-73